Time;durP1;ratioP1;P1;durP2;ratioP2;P2;SDS_P1;SDS_P2;PMS_P1;PMS_P2;Temp;Humidity;BMP_temperature;BMP_pressure;BME280_temperature;BME280_humidity;BME280_pressure;Samples;Min_cycle;Max_cycle;Signal;HPM_P1;HPM_P2
2023/12/03 00:00:34;;;;;;;29.98;16.00;;;-4.20;99.90;;;;;;6284703;22;20016;-80
2023/12/03 00:03:23;;;;;;;31.38;17.05;;;-4.20;99.90;;;;;;6285928;22;20066;-85
2023/12/03 00:06:16;;;;;;;27.90;16.02;;;-4.20;99.90;;;;;;6285938;22;20567;-85
2023/12/03 00:09:03;;;;;;;26.55;14.88;;;-4.20;99.90;;;;;;6289250;22;20053;-86
2023/12/03 00:11:53;;;;;;;27.58;15.82;;;-4.30;99.90;;;;;;6290776;22;20083;-84
2023/12/03 00:14:45;;;;;;;24.98;14.75;;;-4.30;99.90;;;;;;6288255;22;20027;-84
2023/12/03 00:17:34;;;;;;;25.67;15.25;;;-4.30;99.90;;;;;;6287913;22;20043;-85
2023/12/03 00:20:22;;;;;;;27.13;15.80;;;-4.30;99.90;;;;;;6290637;22;20019;-85
2023/12/03 00:23:14;;;;;;;27.20;14.10;;;-4.40;99.90;;;;;;6277270;22;20059;-86
2023/12/03 00:26:01;;;;;;;27.20;13.98;;;-4.40;99.90;;;;;;6279836;22;20046;-85
2023/12/03 00:28:49;;;;;;;23.77;12.48;;;-4.40;99.90;;;;;;6283602;22;20027;-83
2023/12/03 00:31:39;;;;;;;22.92;14.20;;;-4.30;99.90;;;;;;6283060;22;20446;-84
2023/12/03 00:34:26;;;;;;;21.05;12.77;;;-4.30;99.90;;;;;;6280193;22;20015;-85
2023/12/03 00:37:13;;;;;;;20.77;12.77;;;-4.40;99.90;;;;;;6277369;22;20035;-81
2023/12/03 00:40:03;;;;;;;23.02;13.68;;;-4.40;99.90;;;;;;6276461;22;20330;-85
2023/12/03 00:42:54;;;;;;;24.70;13.70;;;-4.40;99.90;;;;;;6274632;22;20039;-84
2023/12/03 00:45:41;;;;;;;20.42;12.48;;;-4.40;99.90;;;;;;6279067;22;20034;-85
2023/12/03 00:48:28;;;;;;;20.75;12.27;;;-4.40;99.90;;;;;;6275843;22;20115;-85
2023/12/03 00:51:16;;;;;;;20.25;12.55;;;-4.40;99.90;;;;;;6278197;22;20260;-86
2023/12/03 00:54:07;;;;;;;22.15;12.93;;;-4.50;99.90;;;;;;6277967;22;20023;-84
2023/12/03 00:56:59;;;;;;;24.35;13.93;;;-4.50;99.90;;;;;;6281631;22;20089;-84
2023/12/03 00:59:47;;;;;;;23.25;13.73;;;-4.40;99.90;;;;;;6276272;22;20071;-84
2023/12/03 01:02:36;;;;;;;22.60;13.30;;;-4.40;99.90;;;;;;6280214;22;20027;-87
2023/12/03 01:05:26;;;;;;;24.00;13.38;;;-4.40;99.90;;;;;;6282758;22;20386;-83
2023/12/03 01:08:16;;;;;;;25.48;14.13;;;-4.40;99.90;;;;;;6281046;22;20072;-85
2023/12/03 01:11:05;;;;;;;24.25;13.55;;;-4.40;99.90;;;;;;6278963;22;20429;-85
2023/12/03 01:13:52;;;;;;;24.13;14.75;;;-4.50;99.90;;;;;;6279098;22;20039;-85
2023/12/03 01:16:41;;;;;;;23.60;14.23;;;-4.50;99.90;;;;;;6277066;22;20046;-85
2023/12/03 01:19:29;;;;;;;25.38;15.13;;;-4.50;99.90;;;;;;6278319;22;20430;-86
2023/12/03 01:22:16;;;;;;;26.00;14.60;;;-4.50;99.90;;;;;;6274734;22;20607;-86
2023/12/03 01:25:04;;;;;;;23.85;14.40;;;-4.50;99.90;;;;;;6276326;22;20093;-78
2023/12/03 01:27:54;;;;;;;23.45;14.45;;;-4.50;99.90;;;;;;6275947;22;20417;-86
2023/12/03 01:30:43;;;;;;;22.85;13.65;;;-4.50;99.90;;;;;;6278079;22;20191;-86
2023/12/03 01:33:31;;;;;;;25.08;15.45;;;-4.50;99.90;;;;;;6284688;22;20024;-85
2023/12/03 01:36:19;;;;;;;26.55;14.88;;;-4.50;99.90;;;;;;6281812;22;20035;-80
2023/12/03 01:39:06;;;;;;;23.02;13.50;;;-4.50;99.90;;;;;;6294153;22;20023;-86
2023/12/03 01:41:55;;;;;;;23.33;13.63;;;-4.50;99.90;;;;;;6277017;22;20026;-86
2023/12/03 01:44:43;;;;;;;23.48;13.95;;;-4.50;99.90;;;;;;6293087;22;20016;-84
2023/12/03 01:47:30;;;;;;;26.25;13.27;;;-4.50;99.90;;;;;;6283420;22;20019;-84
2023/12/03 01:50:19;;;;;;;26.77;14.90;;;-4.40;99.90;;;;;;6279051;22;20043;-84
2023/12/03 01:53:16;;;;;;;23.42;13.48;;;-4.40;99.90;;;;;;6273340;22;20027;-85
2023/12/03 01:56:05;;;;;;;24.13;14.57;;;-4.40;99.90;;;;;;6275156;22;20020;-85
2023/12/03 01:58:52;;;;;;;24.20;13.77;;;-4.40;99.90;;;;;;6275724;22;20409;-82
2023/12/03 02:01:44;;;;;;;25.50;15.23;;;-4.40;99.90;;;;;;6274980;22;20024;-83
2023/12/03 02:04:34;;;;;;;28.27;15.48;;;-4.40;99.90;;;;;;6274941;22;20023;-84
2023/12/03 02:07:21;;;;;;;26.88;14.75;;;-4.40;99.90;;;;;;6273377;22;20023;-86
2023/12/03 02:10:09;;;;;;;24.38;13.40;;;-4.40;99.90;;;;;;6274963;22;20425;-86
2023/12/03 02:12:59;;;;;;;24.70;14.27;;;-4.40;99.90;;;;;;6276229;22;20091;-84
2023/12/03 02:15:46;;;;;;;25.08;14.82;;;-4.50;99.90;;;;;;6275452;22;20032;-80
2023/12/03 02:18:34;;;;;;;24.17;13.65;;;-4.40;99.90;;;;;;6277388;22;20023;-86
2023/12/03 02:21:22;;;;;;;28.15;15.38;;;-4.40;99.90;;;;;;6274943;22;20441;-85
2023/12/03 02:24:09;;;;;;;27.23;14.35;;;-4.40;99.90;;;;;;6272175;22;20038;-79
2023/12/03 02:26:56;;;;;;;26.92;13.45;;;-4.40;99.90;;;;;;6278699;22;20028;-83
2023/12/03 02:29:47;;;;;;;24.00;13.90;;;-4.40;99.90;;;;;;6278005;22;20034;-83
2023/12/03 02:32:35;;;;;;;25.48;14.48;;;-4.40;99.90;;;;;;6277436;22;20066;-83
2023/12/03 02:35:22;;;;;;;25.60;14.57;;;-4.40;99.90;;;;;;6274756;22;20117;-86
2023/12/03 02:38:09;;;;;;;24.63;13.57;;;-4.40;99.90;;;;;;6272715;22;20024;-83
2023/12/03 02:40:59;;;;;;;26.25;14.88;;;-4.40;99.90;;;;;;6276099;22;20035;-83
2023/12/03 02:43:46;;;;;;;25.83;14.35;;;-4.50;99.90;;;;;;6274094;22;20038;-85
2023/12/03 02:46:35;;;;;;;27.55;14.80;;;-4.50;99.90;;;;;;6275441;22;20027;-85
2023/12/03 02:49:25;;;;;;;26.38;14.93;;;-4.50;99.90;;;;;;6273335;22;20081;-83
2023/12/03 02:52:13;;;;;;;24.23;14.98;;;-4.40;99.90;;;;;;6275103;22;20121;-82
2023/12/03 02:55:00;;;;;;;24.67;14.25;;;-4.50;99.90;;;;;;6275669;22;20020;-82
2023/12/03 02:57:52;;;;;;;27.17;15.30;;;-4.50;99.90;;;;;;6272917;22;20066;-82
2023/12/03 03:00:40;;;;;;;23.60;14.23;;;-4.40;99.90;;;;;;6275015;22;20094;-79
2023/12/03 03:03:27;;;;;;;27.90;15.02;;;-4.50;99.90;;;;;;6275702;22;20410;-84
2023/12/03 03:06:17;;;;;;;27.42;15.15;;;-4.50;99.90;;;;;;6274755;22;20024;-82
2023/12/03 03:09:04;;;;;;;28.60;14.70;;;-4.50;99.90;;;;;;6276354;22;20038;-85
2023/12/03 03:11:53;;;;;;;26.27;14.90;;;-4.50;99.90;;;;;;6272065;22;20076;-84
2023/12/03 03:14:40;;;;;;;27.48;14.70;;;-4.50;99.90;;;;;;6275438;22;20418;-85
2023/12/03 03:17:30;;;;;;;30.45;17.23;;;-4.40;99.90;;;;;;6273880;22;20038;-84
2023/12/03 03:20:21;;;;;;;31.70;16.17;;;-4.40;99.90;;;;;;6274748;22;20024;-85
2023/12/03 03:23:09;;;;;;;32.15;16.55;;;-4.40;99.90;;;;;;6275366;22;20028;-84
2023/12/03 03:25:56;;;;;;;28.25;15.27;;;-4.50;99.90;;;;;;6274494;22;20485;-85
2023/12/03 03:28:48;;;;;;;32.70;16.13;;;-4.50;99.90;;;;;;6273323;22;20035;-85
2023/12/03 03:31:39;;;;;;;27.52;15.25;;;-4.50;99.90;;;;;;6273024;22;20028;-85
2023/12/03 03:34:29;;;;;;;29.88;16.17;;;-4.60;99.90;;;;;;6271631;22;20632;-85
2023/12/03 03:37:16;;;;;;;29.50;16.13;;;-4.70;99.90;;;;;;6272316;22;20030;-79
2023/12/03 03:40:04;;;;;;;28.33;15.85;;;-4.90;99.90;;;;;;6275692;22;20325;-81
2023/12/03 03:42:51;;;;;;;33.05;16.73;;;-5.00;99.90;;;;;;6274464;22;20038;-85
2023/12/03 03:45:41;;;;;;;30.63;17.15;;;-5.10;99.90;;;;;;6272966;22;20038;-84
2023/12/03 03:48:28;;;;;;;32.78;16.70;;;-5.20;99.90;;;;;;6274723;22;20035;-80
2023/12/03 03:51:15;;;;;;;29.33;16.50;;;-5.40;99.90;;;;;;6276392;22;20409;-84
2023/12/03 03:54:07;;;;;;;29.70;16.08;;;-5.50;99.90;;;;;;6271208;22;20024;-85
2023/12/03 03:56:55;;;;;;;29.83;16.33;;;-5.60;99.90;;;;;;6276221;22;20049;-85
2023/12/03 03:59:47;;;;;;;31.67;17.00;;;-5.80;99.90;;;;;;6275289;22;20030;-84
2023/12/03 04:02:34;;;;;;;;;;;-6.10;99.90;;;;;;6273856;22;20034;-85
2023/12/03 04:05:23;;;;;;;27.30;15.40;;;-6.30;99.90;;;;;;6274129;22;19914;-85
2023/12/03 04:08:12;;;;;;;27.08;14.65;;;-6.40;99.90;;;;;;6277551;22;20028;-85
2023/12/03 04:11:06;;;;;;;31.75;16.73;;;-6.50;99.90;;;;;;6272395;22;20028;-83
2023/12/03 04:13:53;;;;;;;29.60;15.95;;;-6.60;99.90;;;;;;6273874;22;20383;-84
2023/12/03 04:16:40;;;;;;;34.65;16.98;;;-6.70;99.90;;;;;;6273455;22;20019;-84
2023/12/03 04:19:28;;;;;;;29.92;16.50;;;-6.80;99.90;;;;;;6276594;22;20024;-84
2023/12/03 04:22:17;;;;;;;30.48;15.90;;;-6.90;99.90;;;;;;6273918;22;20567;-84
2023/12/03 04:25:05;;;;;;;35.78;18.20;;;-7.00;99.90;;;;;;6274158;22;20472;-83
2023/12/03 04:27:52;;;;;;;30.88;16.67;;;-7.10;99.90;;;;;;6278463;22;20050;-79
2023/12/03 04:30:39;;;;;;;35.00;17.98;;;-7.10;99.90;;;;;;6277667;22;20043;-85
2023/12/03 04:33:29;;;;;;;34.58;17.45;;;-7.20;99.90;;;;;;6276465;22;20020;-85
2023/12/03 04:36:17;;;;;;;41.88;21.45;;;-7.20;99.90;;;;;;6276399;22;20019;-80
2023/12/03 04:39:04;;;;;;;39.85;19.42;;;-7.10;99.90;;;;;;6278863;22;20019;-85
2023/12/03 04:41:52;;;;;;;39.30;19.33;;;-7.10;99.90;;;;;;6277674;22;20095;-85
2023/12/03 04:44:39;;;;;;;37.67;19.90;;;-7.10;99.90;;;;;;6273771;22;20409;-85
2023/12/03 04:47:26;;;;;;;41.90;19.90;;;-7.10;99.90;;;;;;6276433;22;20028;-85
2023/12/03 04:50:13;;;;;;;43.42;19.20;;;-7.20;99.90;;;;;;6272956;22;20425;-84
2023/12/03 04:53:01;;;;;;;39.85;20.20;;;-7.30;99.90;;;;;;6274825;22;20030;-85
2023/12/03 04:55:48;;;;;;;41.25;19.67;;;-7.40;99.90;;;;;;6272631;22;20034;-86
2023/12/03 04:58:35;;;;;;;41.63;20.60;;;-7.40;99.90;;;;;;6274487;22;20046;-84
2023/12/03 05:01:27;;;;;;;39.40;20.40;;;-7.40;99.90;;;;;;6273126;22;20024;-84
2023/12/03 05:04:14;;;;;;;37.47;18.80;;;-7.60;99.90;;;;;;6275860;22;20161;-85
2023/12/03 05:07:01;;;;;;;41.03;18.95;;;-7.60;99.90;;;;;;6275837;22;20073;-84
2023/12/03 05:09:52;;;;;;;41.80;19.77;;;-7.70;99.90;;;;;;6274941;22;20085;-85
2023/12/03 05:12:41;;;;;;;40.30;19.50;;;-7.70;99.90;;;;;;6275065;22;20095;-80
2023/12/03 05:15:28;;;;;;;38.67;19.45;;;-7.90;99.90;;;;;;6279425;22;20317;-85
2023/12/03 05:18:18;;;;;;;42.80;20.02;;;-7.90;99.90;;;;;;6278059;22;20142;-86
2023/12/03 05:21:07;;;;;;;39.65;19.05;;;-8.00;99.90;;;;;;6275549;22;20036;-85
2023/12/03 05:23:54;;;;;;;45.22;20.45;;;-8.00;99.90;;;;;;6277835;22;20031;-86
2023/12/03 05:26:43;;;;;;;42.60;20.60;;;-8.00;99.90;;;;;;6278320;22;20019;-85
2023/12/03 05:29:30;;;;;;;40.80;21.23;;;-8.00;99.90;;;;;;6283020;22;20035;-84
2023/12/03 05:32:17;;;;;;;37.92;18.80;;;-8.00;99.90;;;;;;6287027;22;20033;-85
2023/12/03 05:35:05;;;;;;;41.25;20.67;;;-8.10;99.90;;;;;;6287334;22;20391;-85
2023/12/03 05:37:55;;;;;;;39.25;19.40;;;-8.10;99.90;;;;;;6278247;22;20028;-85
2023/12/03 05:40:42;;;;;;;46.85;21.17;;;-8.20;99.90;;;;;;6274397;22;20024;-86
2023/12/03 05:43:29;;;;;;;47.15;22.73;;;-8.30;99.90;;;;;;6274495;22;20306;-85
2023/12/03 05:46:16;;;;;;;41.80;21.17;;;-8.30;99.90;;;;;;6275722;22;20097;-85
2023/12/03 05:49:04;;;;;;;42.95;20.13;;;-8.40;99.90;;;;;;6274650;22;20024;-79
2023/12/03 05:51:51;;;;;;;44.00;20.88;;;-8.40;99.90;;;;;;6276679;22;20093;-84
2023/12/03 05:54:42;;;;;;;44.90;20.98;;;-8.50;99.90;;;;;;6279812;22;20019;-84
2023/12/03 05:57:29;;;;;;;44.97;20.45;;;-8.60;99.90;;;;;;6286460;22;20047;-80
2023/12/03 06:00:21;;;;;;;40.60;20.00;;;-8.60;99.90;;;;;;6291950;22;20024;-85
2023/12/03 06:03:11;;;;;;;44.88;19.95;;;-8.50;99.90;;;;;;6297459;22;20031;-84
2023/12/03 06:05:58;;;;;;;40.70;20.48;;;-8.60;99.90;;;;;;6296677;22;20024;-85
2023/12/03 06:08:45;;;;;;;41.53;19.17;;;-8.60;99.90;;;;;;6288313;22;20077;-84
2023/12/03 06:11:35;;;;;;;39.47;19.30;;;-8.50;99.90;;;;;;6280343;22;20027;-86
2023/12/03 06:14:23;;;;;;;41.22;20.33;;;-8.60;99.90;;;;;;6273114;22;20030;-86
2023/12/03 06:17:10;;;;;;;40.78;19.60;;;-8.70;99.90;;;;;;6274737;22;20395;-85
2023/12/03 06:19:57;;;;;;;43.45;20.15;;;-8.70;99.90;;;;;;6275223;22;20028;-85
2023/12/03 06:22:44;;;;;;;45.25;19.60;;;-8.70;99.90;;;;;;6276541;22;20027;-85
2023/12/03 06:25:31;;;;;;;38.50;18.88;;;-8.80;99.90;;;;;;6276947;22;20030;-83
2023/12/03 06:28:18;;;;;;;37.97;18.83;;;-8.80;99.90;;;;;;6276270;22;20028;-85
2023/12/03 06:31:08;;;;;;;41.55;19.67;;;-8.70;99.90;;;;;;6271831;22;20034;-85
2023/12/03 06:33:55;;;;;;;43.80;21.17;;;-8.50;99.90;;;;;;6272780;22;20024;-83
2023/12/03 06:36:43;;;;;;;48.35;21.25;;;-8.50;99.90;;;;;;6273624;22;20027;-80
2023/12/03 06:39:30;;;;;;;51.08;21.20;;;-8.40;99.90;;;;;;6276341;22;20019;-82
2023/12/03 06:42:20;;;;;;;52.58;22.08;;;-8.30;99.90;;;;;;6271633;22;20020;-83
2023/12/03 06:45:11;;;;;;;48.03;21.40;;;-8.20;99.90;;;;;;6273901;22;20027;-82
2023/12/03 06:47:58;;;;;;;44.80;21.27;;;-8.10;99.90;;;;;;6272583;22;20592;-82
2023/12/03 06:50:45;;;;;;;45.80;21.17;;;-8.10;99.90;;;;;;6273281;22;20103;-85
2023/12/03 06:53:33;;;;;;;49.60;21.55;;;-8.20;99.90;;;;;;6271053;22;20031;-85
2023/12/03 06:56:20;;;;;;;59.13;23.88;;;-8.20;99.90;;;;;;6273317;22;20122;-85
2023/12/03 06:59:10;;;;;;;52.35;23.38;;;-8.30;99.90;;;;;;6271484;22;20271;-85
2023/12/03 07:01:57;;;;;;;54.45;23.08;;;-8.30;99.90;;;;;;6272497;22;20030;-84
2023/12/03 07:04:47;;;;;;;48.33;23.35;;;-8.20;99.90;;;;;;6272108;22;20051;-84
2023/12/03 07:07:36;;;;;;;52.97;22.20;;;-8.20;99.90;;;;;;6274239;22;20126;-85
2023/12/03 07:10:24;;;;;;;51.78;23.25;;;-8.20;99.90;;;;;;6274992;22;20053;-85
2023/12/03 07:13:11;;;;;;;51.22;22.00;;;-8.20;99.90;;;;;;6276044;22;20385;-85
2023/12/03 07:16:01;;;;;;;52.00;22.63;;;-8.10;99.90;;;;;;6275683;22;20023;-85
2023/12/03 07:18:51;;;;;;;49.58;21.95;;;-8.00;99.90;;;;;;6276764;22;20020;-84
2023/12/03 07:21:38;;;;;;;75.30;27.45;;;-7.90;99.90;;;;;;6276231;22;20083;-77
2023/12/03 07:24:25;;;;;;;65.80;27.10;;;-7.80;99.90;;;;;;6276994;22;20027;-85
2023/12/03 07:27:14;;;;;;;66.47;28.67;;;-7.80;99.90;;;;;;6275858;22;20027;-83
2023/12/03 07:30:07;;;;;;;59.05;26.63;;;-7.80;99.90;;;;;;6274300;22;20428;-85
2023/12/03 07:32:56;;;;;;;65.30;27.17;;;-7.70;99.90;;;;;;6275513;22;20028;-85
2023/12/03 07:35:44;;;;;;;56.22;24.83;;;-7.60;99.90;;;;;;6274449;22;20321;-83
2023/12/03 07:38:33;;;;;;;68.93;27.63;;;-7.40;99.90;;;;;;6274648;22;20035;-84
2023/12/03 07:41:23;;;;;;;61.65;26.98;;;-7.30;99.90;;;;;;6274564;22;20433;-83
2023/12/03 07:44:12;;;;;;;56.80;26.83;;;-7.00;99.90;;;;;;6273370;22;20023;-83
2023/12/03 07:47:01;;;;;;;63.33;27.10;;;-6.80;99.90;;;;;;6274955;22;20035;-83
2023/12/03 07:49:48;;;;;;;62.67;28.30;;;-6.70;99.90;;;;;;6274733;22;20028;-84
2023/12/03 07:52:35;;;;;;;56.00;25.60;;;-6.60;99.90;;;;;;6272463;22;20039;-82
2023/12/03 07:55:25;;;;;;;54.83;24.90;;;-6.60;99.90;;;;;;6273007;22;20023;-84
2023/12/03 07:58:15;;;;;;;58.92;26.83;;;-6.40;99.90;;;;;;6275877;22;20031;-83
2023/12/03 08:01:05;;;;;;;60.90;27.13;;;-6.30;99.90;;;;;;6275062;22;20030;-80
2023/12/03 08:03:55;;;;;;;67.88;29.95;;;-6.30;99.90;;;;;;6275888;22;20023;-80
2023/12/03 08:06:42;;;;;;;58.08;26.88;;;-6.30;99.90;;;;;;6277973;22;20040;-84
2023/12/03 08:09:29;;;;;;;61.60;26.80;;;-6.20;99.90;;;;;;6278265;22;20111;-85
2023/12/03 08:12:17;;;;;;;66.13;31.50;;;-5.90;99.90;;;;;;6275721;22;20035;-78
2023/12/03 08:15:05;;;;;;;66.03;29.73;;;-5.80;99.90;;;;;;6274944;22;20020;-84
2023/12/03 08:17:52;;;;;;;62.28;30.25;;;-5.70;99.90;;;;;;6276207;22;20108;-82
2023/12/03 08:20:40;;;;;;;68.60;30.45;;;-5.60;99.90;;;;;;6278493;22;20410;-83
2023/12/03 08:23:30;;;;;;;66.88;30.20;;;-5.60;99.90;;;;;;6275429;22;20112;-84
2023/12/03 08:26:17;;;;;;;57.15;26.35;;;-5.50;99.90;;;;;;6276874;22;20303;-82
2023/12/03 08:29:05;;;;;;;59.17;27.48;;;-5.40;99.90;;;;;;6275716;22;20035;-84
2023/12/03 08:31:52;;;;;;;59.08;28.40;;;-5.40;99.90;;;;;;6274378;22;20331;-84
2023/12/03 08:34:39;;;;;;;62.10;27.95;;;-5.20;99.90;;;;;;6277019;22;20024;-84
2023/12/03 08:37:30;;;;;;;61.10;28.42;;;-5.10;99.90;;;;;;6274194;22;20550;-84
2023/12/03 08:40:17;;;;;;;56.42;27.00;;;-4.90;99.90;;;;;;6273923;22;20015;-84
2023/12/03 08:43:05;;;;;;;57.78;26.55;;;-4.80;99.90;;;;;;6274937;22;20105;-85
2023/12/03 08:45:52;;;;;;;56.85;27.25;;;-4.80;99.90;;;;;;6274575;22;20144;-85
2023/12/03 08:48:40;;;;;;;53.33;25.50;;;-4.70;99.90;;;;;;6274621;22;20031;-82
2023/12/03 08:51:27;;;;;;;53.15;25.77;;;-4.70;99.90;;;;;;6278337;22;20034;-81
2023/12/03 08:54:15;;;;;;;50.35;24.58;;;-4.70;99.90;;;;;;6276006;22;20020;-83
2023/12/03 08:57:06;;;;;;;48.35;24.75;;;-4.50;99.90;;;;;;6275294;22;20023;-84
2023/12/03 08:59:55;;;;;;;48.85;25.58;;;-4.40;99.90;;;;;;6274785;22;20090;-84
2023/12/03 09:02:46;;;;;;;50.58;23.92;;;-4.20;99.90;;;;;;6274552;22;20430;-81
2023/12/03 09:05:33;;;;;;;49.75;25.27;;;-4.20;99.90;;;;;;6275953;22;20131;-82
2023/12/03 09:08:21;;;;;;;45.38;23.92;;;-4.10;99.90;;;;;;6270531;22;20290;-81
2023/12/03 09:11:11;;;;;;;43.85;24.27;;;-4.10;99.90;;;;;;6275419;22;20028;-79
2023/12/03 09:13:58;;;;;;;44.38;22.98;;;-3.80;99.90;;;;;;6270497;22;20024;-80
2023/12/03 09:16:45;;;;;;;41.33;22.70;;;-3.90;99.90;;;;;;6273059;22;20047;-83
2023/12/03 09:19:32;;;;;;;39.20;21.60;;;-3.60;99.90;;;;;;6272223;22;20023;-81
2023/12/03 09:22:20;;;;;;;43.10;22.48;;;-3.50;99.90;;;;;;6273791;22;20047;-83
2023/12/03 09:25:08;;;;;;;36.90;21.45;;;-3.30;99.90;;;;;;6271272;22;20030;-82
2023/12/03 09:27:57;;;;;;;35.33;19.45;;;-3.00;99.90;;;;;;6274946;22;20024;-80
2023/12/03 09:30:47;;;;;;;35.30;19.80;;;-2.70;99.90;;;;;;6278631;22;20571;-83
2023/12/03 09:33:34;;;;;;;33.50;19.60;;;-1.90;99.90;;;;;;6275325;22;20023;-83
2023/12/03 09:36:25;;;;;;;29.55;16.90;;;-1.20;99.90;;;;;;6270961;22;20329;-78
2023/12/03 09:39:14;;;;;;;29.85;17.30;;;-0.60;99.90;;;;;;6273562;22;20071;-80
2023/12/03 09:42:03;;;;;;;29.70;17.88;;;0.30;99.90;;;;;;6275428;22;20095;-84
2023/12/03 09:45:00;;;;;;;29.05;16.88;;;1.00;99.90;;;;;;6274687;22;20425;-83
2023/12/03 09:47:53;;;;;;;28.23;17.25;;;1.70;99.90;;;;;;6272487;22;20028;-84
2023/12/03 09:50:42;;;;;;;;;;;2.20;99.90;;;;;;6272943;22;20585;-82
2023/12/03 09:53:33;;;;;;;26.25;15.85;;;2.10;99.90;;;;;;6275117;22;19916;-82
2023/12/03 09:56:23;;;;;;;24.38;14.82;;;2.30;1.00;;;;;;6273933;22;20282;-82
2023/12/03 09:59:13;;;;;;;27.13;15.73;;;2.70;99.90;;;;;;6282554;22;20035;-82
2023/12/03 10:02:01;;;;;;;24.45;14.77;;;2.50;99.90;;;;;;6285620;22;20030;-84
2023/12/03 10:04:51;;;;;;;26.27;14.70;;;2.60;99.90;;;;;;6288238;22;20028;-84
2023/12/03 10:07:41;;;;;;;22.15;13.95;;;2.80;99.90;;;;;;6284426;22;20024;-84
2023/12/03 10:10:31;;;;;;;24.90;14.75;;;3.00;22.90;;;;;;6279992;22;20071;-83
2023/12/03 10:13:19;;;;;;;27.70;14.88;;;2.80;1.00;;;;;;6275552;22;20490;-83
2023/12/03 10:16:12;;;;;;;23.42;14.45;;;2.70;1.00;;;;;;6274026;22;20024;-83
2023/12/03 10:19:02;;;;;;;24.02;14.23;;;3.00;1.00;;;;;;6273322;22;20019;-83
2023/12/03 10:21:51;;;;;;;22.92;14.52;;;3.50;1.00;;;;;;6273705;22;20027;-82
2023/12/03 10:24:49;;;;;;;25.90;14.93;;;3.30;1.00;;;;;;6277714;22;20028;-79
2023/12/03 10:27:39;;;;;;;21.83;13.82;;;3.30;1.00;;;;;;6274101;22;20031;-82
2023/12/03 10:30:32;;;;;;;22.05;13.20;;;3.20;1.00;;;;;;6278756;22;20032;-81
2023/12/03 10:33:20;;;;;;;19.92;12.38;;;3.50;1.00;;;;;;6273923;22;20027;-83
2023/12/03 10:36:09;;;;;;;21.27;13.57;;;3.20;99.90;;;;;;6270742;22;20105;-81
2023/12/03 10:38:56;;;;;;;21.52;13.68;;;3.20;99.90;;;;;;6275046;22;20104;-81
2023/12/03 10:41:49;;;;;;;20.70;13.13;;;3.40;99.90;;;;;;6276062;22;20027;-82
2023/12/03 10:44:38;;;;;;;19.83;12.30;;;3.70;99.90;;;;;;6273744;22;20023;-80
2023/12/03 10:47:25;;;;;;;18.88;13.15;;;3.10;99.90;;;;;;6271913;22;20402;-82
2023/12/03 10:50:14;;;;;;;19.23;11.98;;;2.90;99.90;;;;;;6273812;22;20028;-80
2023/12/03 10:53:02;;;;;;;19.73;12.50;;;3.30;99.90;;;;;;6272517;22;20020;-82
2023/12/03 10:55:50;;;;;;;18.58;11.20;;;3.80;99.90;;;;;;6269926;22;20027;-79
2023/12/03 11:04:05;;;;;;;16.90;10.85;;;3.90;99.90;;;;;;6280335;22;20142;-81
2023/12/03 11:06:55;;;;;;;16.92;9.98;;;3.50;99.90;;;;;;6332137;22;20019;-81
2023/12/03 11:09:43;;;;;;;19.40;12.43;;;3.40;99.90;;;;;;6196046;22;20035;-79
2023/12/03 11:12:37;;;;;;;15.02;9.75;;;3.60;99.90;;;;;;6251598;22;20035;-78
2023/12/03 11:15:25;;;;;;;15.30;9.77;;;3.60;99.90;;;;;;6272268;22;20047;-82
2023/12/03 11:18:18;;;;;;;16.58;10.10;;;3.40;99.90;;;;;;6250941;22;20352;-83
2023/12/03 11:21:15;;;;;;;16.98;10.40;;;3.10;99.90;;;;;;6271713;22;20024;-82
2023/12/03 11:24:39;;;;;;;14.52;9.20;;;3.60;99.90;;;;;;6271667;22;20095;-82
2023/12/03 11:27:30;;;;;;;15.90;10.00;;;3.10;99.90;;;;;;6248308;22;20024;-83
2023/12/03 11:30:36;;;;;;;20.67;10.85;;;3.20;99.90;;;;;;6274774;22;20047;-79
2023/12/03 11:33:27;;;;;;;16.95;9.88;;;3.40;99.90;;;;;;6252473;22;20485;-79
2023/12/03 11:36:18;;;;;;;14.02;9.93;;;4.00;99.90;;;;;;6274116;22;20031;-82
2023/12/03 11:39:09;;;;;;;15.90;10.45;;;4.40;99.90;;;;;;6277046;22;20110;-83
2023/12/03 11:42:00;;;;;;;14.57;9.93;;;4.90;99.90;;;;;;6253308;22;20029;-84
2023/12/03 11:44:48;;;;;;;16.07;10.10;;;4.60;99.90;;;;;;6273010;22;20051;-83
2023/12/03 11:47:36;;;;;;;16.40;10.07;;;4.70;99.90;;;;;;6252828;22;20023;-83
2023/12/03 11:50:24;;;;;;;15.98;10.05;;;5.20;99.90;;;;;;6272845;22;20071;-83
2023/12/03 11:53:15;;;;;;;15.15;9.70;;;5.10;99.90;;;;;;6273115;22;20031;-81
2023/12/03 11:56:06;;;;;;;17.20;10.55;;;5.10;99.90;;;;;;6274716;22;20023;-83
2023/12/03 11:58:56;;;;;;;13.63;9.45;;;5.30;99.90;;;;;;6272537;22;20071;-83
2023/12/03 12:01:44;;;;;;;13.55;8.50;;;5.20;99.90;;;;;;6274959;22;20020;-82
2023/12/03 12:04:34;;;;;;;14.77;9.73;;;5.20;99.90;;;;;;6273262;22;20024;-83
2023/12/03 12:07:21;;;;;;;15.80;10.98;;;6.20;99.90;;;;;;6274863;22;20024;-83
2023/12/03 12:10:09;;;;;;;14.75;9.93;;;6.70;99.90;;;;;;6249659;22;20023;-82
2023/12/03 12:13:01;;;;;;;15.93;9.98;;;6.90;99.90;;;;;;6273487;22;20046;-79
2023/12/03 12:15:48;;;;;;;12.98;9.55;;;6.30;99.90;;;;;;6254153;22;20398;-79
2023/12/03 12:18:36;;;;;;;16.02;11.02;;;5.40;99.90;;;;;;6277902;22;20028;-84
2023/12/03 12:21:24;;;;;;;16.98;10.82;;;5.20;99.90;;;;;;6252546;22;20034;-84
2023/12/03 12:24:12;;;;;;;22.55;11.65;;;5.50;99.90;;;;;;6273046;22;20035;-82
2023/12/03 12:27:02;;;;;;;16.35;10.57;;;5.30;99.90;;;;;;6276146;22;20020;-82
2023/12/03 12:29:49;;;;;;;16.40;10.63;;;5.60;99.90;;;;;;6275658;22;20377;-83
2023/12/03 12:32:37;;;;;;;17.23;11.00;;;5.60;99.90;;;;;;6272627;22;20452;-84
2023/12/03 12:35:26;;;;;;;14.32;10.27;;;5.60;99.90;;;;;;6271918;22;20035;-81
2023/12/03 12:38:13;;;;;;;16.58;10.30;;;6.30;99.90;;;;;;6273272;22;20050;-84
2023/12/03 12:41:01;;;;;;;14.95;10.15;;;6.30;99.90;;;;;;6270548;22;20031;-83
2023/12/03 12:44:02;;;;;;;14.70;10.32;;;6.00;99.90;;;;;;6270880;22;20394;-83
2023/12/03 12:46:55;;;;;;;17.23;11.13;;;5.80;99.90;;;;;;6271981;22;20055;-85
2023/12/03 12:49:52;;;;;;;16.30;10.70;;;5.90;99.90;;;;;;6272846;22;20053;-84
2023/12/03 12:52:40;;;;;;;18.50;10.70;;;6.60;99.90;;;;;;6272278;22;20036;-84
2023/12/03 12:55:32;;;;;;;15.82;10.38;;;7.30;99.90;;;;;;6273177;22;20035;-82
2023/12/03 12:58:20;;;;;;;15.20;10.43;;;6.50;99.90;;;;;;6272411;22;20054;-84
2023/12/03 13:01:07;;;;;;;16.25;10.85;;;5.70;99.90;;;;;;6251701;22;20287;-84
2023/12/03 13:03:57;;;;;;;15.55;10.45;;;6.00;99.90;;;;;;6272455;22;20065;-85
2023/12/03 13:06:45;;;;;;;13.75;9.45;;;7.30;99.90;;;;;;6251711;22;20028;-83
2023/12/03 13:09:32;;;;;;;13.65;9.60;;;7.40;99.90;;;;;;6290538;22;20054;-85
2023/12/03 13:12:20;;;;;;;14.23;9.18;;;6.80;99.90;;;;;;6276739;22;20529;-83
2023/12/03 13:15:11;;;;;;;15.65;9.45;;;6.20;99.90;;;;;;6272295;22;20026;-85
2023/12/03 13:18:01;;;;;;;16.67;10.38;;;5.40;99.90;;;;;;6273216;22;20081;-82
2023/12/03 13:21:02;;;;;;;17.42;10.80;;;4.80;99.90;;;;;;6274235;22;20066;-86
2023/12/03 13:23:52;;;;;;;16.45;10.48;;;4.60;99.90;;;;;;6273645;22;20020;-84
2023/12/03 13:26:40;;;;;;;14.95;10.10;;;5.10;99.90;;;;;;6274589;22;20042;-85
2023/12/03 13:29:29;;;;;;;15.65;9.63;;;5.30;99.90;;;;;;6274060;22;20046;-84
2023/12/03 13:32:21;;;;;;;17.63;11.10;;;4.60;99.90;;;;;;6273757;22;20099;-83
2023/12/03 13:35:12;;;;;;;17.83;10.40;;;4.20;99.90;;;;;;6272886;22;20028;-85
2023/12/03 13:37:59;;;;;;;18.80;10.88;;;4.40;99.90;;;;;;6272806;22;20028;-85
2023/12/03 13:40:49;;;;;;;17.52;11.48;;;4.00;99.90;;;;;;6272606;22;20024;-85
2023/12/03 13:43:36;;;;;;;16.52;10.43;;;3.80;99.90;;;;;;6271160;22;20046;-84
2023/12/03 13:46:24;;;;;;;18.42;11.73;;;4.10;99.90;;;;;;6272313;22;20043;-84
2023/12/03 13:49:11;;;;;;;23.08;11.32;;;3.60;99.90;;;;;;6271304;22;20023;-78
2023/12/03 13:51:59;;;;;;;22.27;12.52;;;3.40;99.90;;;;;;6275430;22;20135;-84
2023/12/03 13:54:47;;;;;;;16.92;11.40;;;3.50;99.90;;;;;;6274120;22;20734;-86
2023/12/03 13:57:37;;;;;;;18.80;11.30;;;4.00;99.90;;;;;;6274391;22;20022;-79
2023/12/03 14:00:25;;;;;;;21.00;11.82;;;3.70;99.90;;;;;;6278869;22;20024;-85
2023/12/03 14:03:13;;;;;;;18.48;11.07;;;4.20;99.90;;;;;;6280334;22;20482;-84
2023/12/03 14:06:00;;;;;;;16.77;10.70;;;4.70;99.90;;;;;;6276288;22;20028;-84
2023/12/03 14:08:48;;;;;;;17.30;11.32;;;4.90;99.90;;;;;;6277344;22;20027;-83
2023/12/03 14:45:45;;;;;;;;;;;;;;;;;;;;;
2023/12/03 15:11:00;;;;;;;28.13;15.55;;;-1.80;1.00;;;;;;6007346;23;20020;-83
2023/12/03 15:46:47;;;;;;;56.90;29.73;;;-3.60;1.00;;;;;;6116574;23;20020;-86
2023/12/03 15:49:35;;;;;;;39.03;21.25;;;-3.70;1.00;;;;;;6244152;22;20019;-85
2023/12/03 15:52:22;;;;;;;40.90;20.92;;;-3.80;1.60;;;;;;6275946;22;20027;-85
2023/12/03 15:55:10;;;;;;;38.30;19.88;;;-3.80;25.20;;;;;;6276706;22;20589;-85
2023/12/03 15:58:11;;;;;;;42.45;21.33;;;-3.80;33.70;;;;;;6256378;22;20306;-78